sensor_id;sensor_type;location;lat;lon;timestamp;temperature;humidity
8633;DHT22;4354;49.832;10.746;2024-03-06T00:02:21;6.80;99.90
8633;DHT22;4354;49.832;10.746;2024-03-06T00:04:48;6.80;99.90
8633;DHT22;4354;49.832;10.746;2024-03-06T00:07:14;6.80;99.90
8633;DHT22;4354;49.832;10.746;2024-03-06T00:09:42;6.70;99.90
8633;DHT22;4354;49.832;10.746;2024-03-06T00:12:09;6.70;99.90
8633;DHT22;4354;49.832;10.746;2024-03-06T00:14:36;6.70;99.90
8633;DHT22;4354;49.832;10.746;2024-03-06T00:17:03;6.70;99.90
8633;DHT22;4354;49.832;10.746;2024-03-06T00:19:34;6.70;99.90
8633;DHT22;4354;49.832;10.746;2024-03-06T00:22:01;6.70;99.90
8633;DHT22;4354;49.832;10.746;2024-03-06T00:24:29;6.70;99.90
8633;DHT22;4354;49.832;10.746;2024-03-06T00:26:56;6.70;99.90
8633;DHT22;4354;49.832;10.746;2024-03-06T00:29:23;6.80;99.90
8633;DHT22;4354;49.832;10.746;2024-03-06T00:31:49;6.70;99.90
8633;DHT22;4354;49.832;10.746;2024-03-06T00:34:17;6.70;99.90
8633;DHT22;4354;49.832;10.746;2024-03-06T00:36:44;6.70;99.90
8633;DHT22;4354;49.832;10.746;2024-03-06T00:39:11;6.70;99.90
8633;DHT22;4354;49.832;10.746;2024-03-06T00:41:38;6.70;99.90
8633;DHT22;4354;49.832;10.746;2024-03-06T00:44:05;6.70;99.90
8633;DHT22;4354;49.832;10.746;2024-03-06T00:46:32;6.70;99.90
8633;DHT22;4354;49.832;10.746;2024-03-06T00:48:59;6.60;99.90
8633;DHT22;4354;49.832;10.746;2024-03-06T00:51:26;6.60;99.90
8633;DHT22;4354;49.832;10.746;2024-03-06T00:54:07;6.60;99.90
8633;DHT22;4354;49.832;10.746;2024-03-06T00:56:37;6.60;99.90
8633;DHT22;4354;49.832;10.746;2024-03-06T00:59:05;6.60;99.90
8633;DHT22;4354;49.832;10.746;2024-03-06T01:01:32;6.60;99.90
8633;DHT22;4354;49.832;10.746;2024-03-06T01:03:59;6.60;99.90
8633;DHT22;4354;49.832;10.746;2024-03-06T01:06:26;6.60;99.90
8633;DHT22;4354;49.832;10.746;2024-03-06T01:08:53;6.70;99.90
8633;DHT22;4354;49.832;10.746;2024-03-06T01:11:21;6.60;99.90
8633;DHT22;4354;49.832;10.746;2024-03-06T01:13:48;6.50;99.90
8633;DHT22;4354;49.832;10.746;2024-03-06T01:16:15;6.50;99.90
8633;DHT22;4354;49.832;10.746;2024-03-06T01:18:42;6.60;99.90
8633;DHT22;4354;49.832;10.746;2024-03-06T01:21:09;6.60;99.90
8633;DHT22;4354;49.832;10.746;2024-03-06T01:23:36;6.60;99.90
8633;DHT22;4354;49.832;10.746;2024-03-06T01:26:03;6.60;99.90
8633;DHT22;4354;49.832;10.746;2024-03-06T01:28:29;6.60;99.90
8633;DHT22;4354;49.832;10.746;2024-03-06T01:30:56;6.50;99.90
8633;DHT22;4354;49.832;10.746;2024-03-06T01:33:25;6.50;99.90
8633;DHT22;4354;49.832;10.746;2024-03-06T01:35:52;6.50;99.90
8633;DHT22;4354;49.832;10.746;2024-03-06T01:38:18;6.50;99.90
8633;DHT22;4354;49.832;10.746;2024-03-06T01:40:45;6.50;99.90
8633;DHT22;4354;49.832;10.746;2024-03-06T01:43:22;6.50;99.90
8633;DHT22;4354;49.832;10.746;2024-03-06T01:45:50;6.50;99.90
8633;DHT22;4354;49.832;10.746;2024-03-06T01:48:27;6.50;99.90
8633;DHT22;4354;49.832;10.746;2024-03-06T01:50:56;6.50;99.90
8633;DHT22;4354;49.832;10.746;2024-03-06T01:53:24;6.50;99.90
8633;DHT22;4354;49.832;10.746;2024-03-06T01:55:51;6.50;99.90
8633;DHT22;4354;49.832;10.746;2024-03-06T01:58:18;6.50;99.90
8633;DHT22;4354;49.832;10.746;2024-03-06T02:00:49;6.40;99.90
8633;DHT22;4354;49.832;10.746;2024-03-06T02:03:18;6.50;99.90
8633;DHT22;4354;49.832;10.746;2024-03-06T02:05:48;6.50;99.90
8633;DHT22;4354;49.832;10.746;2024-03-06T02:08:15;6.40;99.90
8633;DHT22;4354;49.832;10.746;2024-03-06T02:10:45;6.40;99.90
8633;DHT22;4354;49.832;10.746;2024-03-06T02:13:13;6.50;99.90
8633;DHT22;4354;49.832;10.746;2024-03-06T02:15:41;6.40;99.90
8633;DHT22;4354;49.832;10.746;2024-03-06T02:18:08;6.40;99.90
8633;DHT22;4354;49.832;10.746;2024-03-06T02:20:39;6.40;99.90
8633;DHT22;4354;49.832;10.746;2024-03-06T02:23:08;6.40;99.90
8633;DHT22;4354;49.832;10.746;2024-03-06T02:25:36;6.40;99.90
8633;DHT22;4354;49.832;10.746;2024-03-06T02:28:03;6.40;99.90
8633;DHT22;4354;49.832;10.746;2024-03-06T02:30:30;6.40;99.90
8633;DHT22;4354;49.832;10.746;2024-03-06T02:33:04;6.40;99.90
8633;DHT22;4354;49.832;10.746;2024-03-06T02:35:31;6.40;99.90
8633;DHT22;4354;49.832;10.746;2024-03-06T02:37:59;6.40;99.90
8633;DHT22;4354;49.832;10.746;2024-03-06T02:40:26;6.40;99.90
8633;DHT22;4354;49.832;10.746;2024-03-06T02:42:52;6.40;99.90
8633;DHT22;4354;49.832;10.746;2024-03-06T02:45:19;6.30;99.90
8633;DHT22;4354;49.832;10.746;2024-03-06T02:47:48;6.30;99.90
8633;DHT22;4354;49.832;10.746;2024-03-06T02:50:15;6.30;99.90
8633;DHT22;4354;49.832;10.746;2024-03-06T02:52:42;6.30;99.90
8633;DHT22;4354;49.832;10.746;2024-03-06T02:55:09;6.20;99.90
8633;DHT22;4354;49.832;10.746;2024-03-06T02:57:36;6.20;99.90
8633;DHT22;4354;49.832;10.746;2024-03-06T03:00:03;6.20;99.90
8633;DHT22;4354;49.832;10.746;2024-03-06T03:02:31;6.20;99.90
8633;DHT22;4354;49.832;10.746;2024-03-06T03:04:58;6.00;99.90
8633;DHT22;4354;49.832;10.746;2024-03-06T03:07:25;6.10;99.90
8633;DHT22;4354;49.832;10.746;2024-03-06T03:09:51;6.10;99.90
8633;DHT22;4354;49.832;10.746;2024-03-06T03:12:18;6.00;99.90
8633;DHT22;4354;49.832;10.746;2024-03-06T03:14:45;5.90;99.90
8633;DHT22;4354;49.832;10.746;2024-03-06T03:17:12;5.90;99.90
8633;DHT22;4354;49.832;10.746;2024-03-06T03:19:39;6.00;99.90
8633;DHT22;4354;49.832;10.746;2024-03-06T03:43:42;6.10;99.90
8633;DHT22;4354;49.832;10.746;2024-03-06T03:46:09;6.00;99.90
8633;DHT22;4354;49.832;10.746;2024-03-06T03:48:36;6.00;99.90
8633;DHT22;4354;49.832;10.746;2024-03-06T03:51:04;6.00;99.90
8633;DHT22;4354;49.832;10.746;2024-03-06T03:53:32;6.00;99.90
8633;DHT22;4354;49.832;10.746;2024-03-06T03:56:00;6.00;99.90
8633;DHT22;4354;49.832;10.746;2024-03-06T03:58:27;6.00;99.90
8633;DHT22;4354;49.832;10.746;2024-03-06T04:00:54;6.00;99.90
8633;DHT22;4354;49.832;10.746;2024-03-06T04:03:22;5.90;99.90
8633;DHT22;4354;49.832;10.746;2024-03-06T04:05:50;6.00;99.90
8633;DHT22;4354;49.832;10.746;2024-03-06T04:08:17;6.00;99.90
8633;DHT22;4354;49.832;10.746;2024-03-06T04:10:44;6.10;99.90
8633;DHT22;4354;49.832;10.746;2024-03-06T04:13:12;6.00;99.90
8633;DHT22;4354;49.832;10.746;2024-03-06T04:15:39;6.00;99.90
8633;DHT22;4354;49.832;10.746;2024-03-06T04:18:06;6.10;99.90
8633;DHT22;4354;49.832;10.746;2024-03-06T04:20:33;6.10;99.90
8633;DHT22;4354;49.832;10.746;2024-03-06T04:23:00;6.10;99.90
8633;DHT22;4354;49.832;10.746;2024-03-06T04:25:27;6.10;99.90
8633;DHT22;4354;49.832;10.746;2024-03-06T04:27:54;6.20;99.90
8633;DHT22;4354;49.832;10.746;2024-03-06T04:30:21;6.20;99.90
8633;DHT22;4354;49.832;10.746;2024-03-06T04:32:48;6.20;99.90
8633;DHT22;4354;49.832;10.746;2024-03-06T04:35:15;6.20;99.90
8633;DHT22;4354;49.832;10.746;2024-03-06T04:37:42;6.20;99.90
8633;DHT22;4354;49.832;10.746;2024-03-06T04:40:11;6.10;99.90
8633;DHT22;4354;49.832;10.746;2024-03-06T04:42:37;6.20;99.90
8633;DHT22;4354;49.832;10.746;2024-03-06T04:45:24;6.20;99.90
8633;DHT22;4354;49.832;10.746;2024-03-06T04:47:52;6.20;99.90
8633;DHT22;4354;49.832;10.746;2024-03-06T04:50:18;6.20;99.90
8633;DHT22;4354;49.832;10.746;2024-03-06T04:52:45;6.20;99.90
8633;DHT22;4354;49.832;10.746;2024-03-06T04:55:12;6.20;99.90
8633;DHT22;4354;49.832;10.746;2024-03-06T04:57:43;6.20;99.90
8633;DHT22;4354;49.832;10.746;2024-03-06T05:00:11;6.30;99.90
8633;DHT22;4354;49.832;10.746;2024-03-06T05:02:39;6.30;99.90
8633;DHT22;4354;49.832;10.746;2024-03-06T05:05:23;6.30;99.90
8633;DHT22;4354;49.832;10.746;2024-03-06T05:08:08;6.30;99.90
8633;DHT22;4354;49.832;10.746;2024-03-06T05:10:54;6.30;99.90
8633;DHT22;4354;49.832;10.746;2024-03-06T05:13:38;6.30;99.90
8633;DHT22;4354;49.832;10.746;2024-03-06T05:16:22;6.30;99.90
8633;DHT22;4354;49.832;10.746;2024-03-06T05:19:08;6.30;99.90
8633;DHT22;4354;49.832;10.746;2024-03-06T05:21:52;6.30;99.90
8633;DHT22;4354;49.832;10.746;2024-03-06T05:24:37;6.30;99.90
8633;DHT22;4354;49.832;10.746;2024-03-06T05:27:21;6.30;99.90
8633;DHT22;4354;49.832;10.746;2024-03-06T05:30:06;6.30;99.90
8633;DHT22;4354;49.832;10.746;2024-03-06T05:32:52;6.30;99.90
8633;DHT22;4354;49.832;10.746;2024-03-06T05:35:36;6.30;99.90
8633;DHT22;4354;49.832;10.746;2024-03-06T05:38:20;6.20;99.90
8633;DHT22;4354;49.832;10.746;2024-03-06T05:41:06;6.20;99.90
8633;DHT22;4354;49.832;10.746;2024-03-06T05:43:50;6.20;99.90
8633;DHT22;4354;49.832;10.746;2024-03-06T05:46:34;6.20;99.90
8633;DHT22;4354;49.832;10.746;2024-03-06T05:49:18;6.30;99.90
8633;DHT22;4354;49.832;10.746;2024-03-06T05:52:02;6.20;99.90
8633;DHT22;4354;49.832;10.746;2024-03-06T05:54:46;6.30;99.90
8633;DHT22;4354;49.832;10.746;2024-03-06T05:57:30;6.30;99.90
8633;DHT22;4354;49.832;10.746;2024-03-06T06:00:16;6.30;99.90
8633;DHT22;4354;49.832;10.746;2024-03-06T06:02:45;6.20;99.90
8633;DHT22;4354;49.832;10.746;2024-03-06T06:05:12;6.20;99.90
8633;DHT22;4354;49.832;10.746;2024-03-06T06:07:50;6.30;99.90
8633;DHT22;4354;49.832;10.746;2024-03-06T06:10:17;6.30;99.90
8633;DHT22;4354;49.832;10.746;2024-03-06T06:12:48;6.30;99.90
8633;DHT22;4354;49.832;10.746;2024-03-06T06:15:15;6.30;99.90
8633;DHT22;4354;49.832;10.746;2024-03-06T06:17:42;6.30;99.90
8633;DHT22;4354;49.832;10.746;2024-03-06T06:20:12;6.40;99.90
8633;DHT22;4354;49.832;10.746;2024-03-06T06:22:42;6.40;99.90
8633;DHT22;4354;49.832;10.746;2024-03-06T06:25:10;6.40;99.90
8633;DHT22;4354;49.832;10.746;2024-03-06T06:27:40;6.40;99.90
8633;DHT22;4354;49.832;10.746;2024-03-06T06:30:08;6.40;99.90
8633;DHT22;4354;49.832;10.746;2024-03-06T06:32:39;6.40;99.90
8633;DHT22;4354;49.832;10.746;2024-03-06T06:35:08;6.50;99.90
8633;DHT22;4354;49.832;10.746;2024-03-06T06:37:36;6.50;99.90
8633;DHT22;4354;49.832;10.746;2024-03-06T06:40:03;6.50;99.90
8633;DHT22;4354;49.832;10.746;2024-03-06T06:42:34;6.60;99.90
8633;DHT22;4354;49.832;10.746;2024-03-06T06:45:02;6.50;99.90
8633;DHT22;4354;49.832;10.746;2024-03-06T06:47:29;6.60;99.90
8633;DHT22;4354;49.832;10.746;2024-03-06T06:49:58;6.60;99.90
8633;DHT22;4354;49.832;10.746;2024-03-06T06:52:24;6.60;99.90
8633;DHT22;4354;49.832;10.746;2024-03-06T06:54:54;6.70;99.90
8633;DHT22;4354;49.832;10.746;2024-03-06T06:57:22;6.70;99.90
8633;DHT22;4354;49.832;10.746;2024-03-06T06:59:49;6.80;99.90
8633;DHT22;4354;49.832;10.746;2024-03-06T07:02:16;6.80;99.90
8633;DHT22;4354;49.832;10.746;2024-03-06T07:04:43;6.90;99.90
8633;DHT22;4354;49.832;10.746;2024-03-06T07:07:10;7.00;99.90
8633;DHT22;4354;49.832;10.746;2024-03-06T07:09:37;7.10;99.90
8633;DHT22;4354;49.832;10.746;2024-03-06T07:12:04;7.20;99.90
8633;DHT22;4354;49.832;10.746;2024-03-06T07:14:31;7.30;99.00
8633;DHT22;4354;49.832;10.746;2024-03-06T07:16:58;7.40;96.30
8633;DHT22;4354;49.832;10.746;2024-03-06T07:19:25;7.50;99.30
8633;DHT22;4354;49.832;10.746;2024-03-06T07:21:52;7.60;96.40
8633;DHT22;4354;49.832;10.746;2024-03-06T07:24:20;7.70;81.70
8633;DHT22;4354;49.832;10.746;2024-03-06T07:26:46;7.70;65.40
8633;DHT22;4354;49.832;10.746;2024-03-06T07:29:13;7.90;66.50
8633;DHT22;4354;49.832;10.746;2024-03-06T07:31:41;8.00;57.40
8633;DHT22;4354;49.832;10.746;2024-03-06T07:34:08;8.20;53.30
8633;DHT22;4354;49.832;10.746;2024-03-06T07:36:35;8.20;23.50
8633;DHT22;4354;49.832;10.746;2024-03-06T07:39:03;8.40;35.70
8633;DHT22;4354;49.832;10.746;2024-03-06T07:41:31;8.60;22.80
8633;DHT22;4354;49.832;10.746;2024-03-06T07:44:01;8.60;1.00
8633;DHT22;4354;49.832;10.746;2024-03-06T07:46:29;8.80;1.00
8633;DHT22;4354;49.832;10.746;2024-03-06T07:48:56;8.90;1.00
8633;DHT22;4354;49.832;10.746;2024-03-06T07:51:23;9.00;1.00
8633;DHT22;4354;49.832;10.746;2024-03-06T07:53:50;9.30;1.00
8633;DHT22;4354;49.832;10.746;2024-03-06T07:56:17;9.70;1.00
8633;DHT22;4354;49.832;10.746;2024-03-06T07:58:44;10.40;1.00
8633;DHT22;4354;49.832;10.746;2024-03-06T08:01:11;11.10;99.90
8633;DHT22;4354;49.832;10.746;2024-03-06T08:03:39;11.90;1.00
8633;DHT22;4354;49.832;10.746;2024-03-06T08:06:06;13.20;99.90
8633;DHT22;4354;49.832;10.746;2024-03-06T08:08:33;14.10;99.90
8633;DHT22;4354;49.832;10.746;2024-03-06T08:11:01;14.70;1.00
8633;DHT22;4354;49.832;10.746;2024-03-06T08:13:28;15.30;1.00
8633;DHT22;4354;49.832;10.746;2024-03-06T08:15:55;15.30;1.00
8633;DHT22;4354;49.832;10.746;2024-03-06T08:18:22;14.80;1.00
8633;DHT22;4354;49.832;10.746;2024-03-06T08:20:49;14.20;1.00
8633;DHT22;4354;49.832;10.746;2024-03-06T08:23:16;13.60;1.00
8633;DHT22;4354;49.832;10.746;2024-03-06T08:25:43;12.90;1.00
8633;DHT22;4354;49.832;10.746;2024-03-06T08:28:09;12.70;1.00
8633;DHT22;4354;49.832;10.746;2024-03-06T08:30:36;12.30;1.00
8633;DHT22;4354;49.832;10.746;2024-03-06T08:33:03;12.20;1.00
8633;DHT22;4354;49.832;10.746;2024-03-06T08:35:30;12.00;1.00
8633;DHT22;4354;49.832;10.746;2024-03-06T08:37:57;11.80;1.00
8633;DHT22;4354;49.832;10.746;2024-03-06T08:40:42;11.90;1.00
8633;DHT22;4354;49.832;10.746;2024-03-06T08:43:12;11.80;1.00
8633;DHT22;4354;49.832;10.746;2024-03-06T08:45:39;11.50;1.00
8633;DHT22;4354;49.832;10.746;2024-03-06T08:48:06;11.20;82.70
8633;DHT22;4354;49.832;10.746;2024-03-06T08:50:33;10.90;99.90
8633;DHT22;4354;49.832;10.746;2024-03-06T08:53:00;10.50;1.00
8633;DHT22;4354;49.832;10.746;2024-03-06T08:55:28;10.20;1.00
8633;DHT22;4354;49.832;10.746;2024-03-06T08:57:55;9.90;1.00
8633;DHT22;4354;49.832;10.746;2024-03-06T09:00:22;9.80;1.00
8633;DHT22;4354;49.832;10.746;2024-03-06T09:02:48;9.60;95.90
8633;DHT22;4354;49.832;10.746;2024-03-06T09:05:16;9.50;1.00
8633;DHT22;4354;49.832;10.746;2024-03-06T09:07:43;9.50;99.90
8633;DHT22;4354;49.832;10.746;2024-03-06T09:10:10;9.50;1.00
8633;DHT22;4354;49.832;10.746;2024-03-06T09:12:38;9.50;1.00
8633;DHT22;4354;49.832;10.746;2024-03-06T09:15:05;9.60;1.00
8633;DHT22;4354;49.832;10.746;2024-03-06T09:17:35;9.70;1.00
8633;DHT22;4354;49.832;10.746;2024-03-06T09:20:02;9.70;99.90
8633;DHT22;4354;49.832;10.746;2024-03-06T09:49:31;9.70;36.50
8633;DHT22;4354;49.832;10.746;2024-03-06T09:52:02;10.80;1.00
8633;DHT22;4354;49.832;10.746;2024-03-06T09:54:35;9.80;1.00
8633;DHT22;4354;49.832;10.746;2024-03-06T09:57:03;11.20;1.00
8633;DHT22;4354;49.832;10.746;2024-03-06T09:59:30;9.80;1.00
8633;DHT22;4354;49.832;10.746;2024-03-06T10:01:58;9.90;1.00
8633;DHT22;4354;49.832;10.746;2024-03-06T10:04:29;10.20;1.00
8633;DHT22;4354;49.832;10.746;2024-03-06T10:06:59;11.20;1.00
8633;DHT22;4354;49.832;10.746;2024-03-06T10:09:27;11.30;1.00
8633;DHT22;4354;49.832;10.746;2024-03-06T10:11:57;10.60;1.00
8633;DHT22;4354;49.832;10.746;2024-03-06T10:14:30;11.10;99.90
8633;DHT22;4354;49.832;10.746;2024-03-06T10:16:58;11.50;99.90
8633;DHT22;4354;49.832;10.746;2024-03-06T10:19:30;11.80;1.00
8633;DHT22;4354;49.832;10.746;2024-03-06T10:21:58;11.90;1.00
8633;DHT22;4354;49.832;10.746;2024-03-06T10:24:27;11.90;1.00
8633;DHT22;4354;49.832;10.746;2024-03-06T11:47:59;13.60;99.90
8633;DHT22;4354;49.832;10.746;2024-03-06T11:50:28;13.20;99.90
8633;DHT22;4354;49.832;10.746;2024-03-06T11:52:55;13.60;99.90
8633;DHT22;4354;49.832;10.746;2024-03-06T11:55:22;13.70;99.90
8633;DHT22;4354;49.832;10.746;2024-03-06T11:57:55;12.30;99.90
8633;DHT22;4354;49.832;10.746;2024-03-06T12:00:25;13.40;99.90
8633;DHT22;4354;49.832;10.746;2024-03-06T12:02:52;14.00;99.90
8633;DHT22;4354;49.832;10.746;2024-03-06T12:05:19;14.10;99.90
8633;DHT22;4354;49.832;10.746;2024-03-06T12:07:50;14.00;99.90
8633;DHT22;4354;49.832;10.746;2024-03-06T12:10:51;14.00;99.90
8633;DHT22;4354;49.832;10.746;2024-03-06T12:13:22;15.30;99.90
8633;DHT22;4354;49.832;10.746;2024-03-06T12:15:51;14.40;99.90
8633;DHT22;4354;49.832;10.746;2024-03-06T12:18:24;15.40;99.90
8633;DHT22;4354;49.832;10.746;2024-03-06T12:20:51;15.20;99.90
8633;DHT22;4354;49.832;10.746;2024-03-06T12:23:27;15.30;99.90
8633;DHT22;4354;49.832;10.746;2024-03-06T12:26:07;14.30;99.90
8633;DHT22;4354;49.832;10.746;2024-03-06T12:28:41;14.50;99.90
8633;DHT22;4354;49.832;10.746;2024-03-06T12:31:12;16.00;99.90
8633;DHT22;4354;49.832;10.746;2024-03-06T12:33:56;14.70;99.90
8633;DHT22;4354;49.832;10.746;2024-03-06T12:36:28;15.10;99.90
8633;DHT22;4354;49.832;10.746;2024-03-06T12:39:04;15.30;99.90
8633;DHT22;4354;49.832;10.746;2024-03-06T12:41:42;16.10;99.90
8633;DHT22;4354;49.832;10.746;2024-03-06T12:44:13;16.70;99.90
8633;DHT22;4354;49.832;10.746;2024-03-06T12:46:42;15.70;99.90
8633;DHT22;4354;49.832;10.746;2024-03-06T12:49:09;16.60;99.90
8633;DHT22;4354;49.832;10.746;2024-03-06T12:51:36;17.60;99.90
8633;DHT22;4354;49.832;10.746;2024-03-06T12:54:04;18.10;99.90
8633;DHT22;4354;49.832;10.746;2024-03-06T12:56:34;17.10;99.90
8633;DHT22;4354;49.832;10.746;2024-03-06T12:59:15;17.20;99.90
8633;DHT22;4354;49.832;10.746;2024-03-06T13:02:09;17.90;99.90
8633;DHT22;4354;49.832;10.746;2024-03-06T13:04:45;17.60;99.90
8633;DHT22;4354;49.832;10.746;2024-03-06T13:07:17;17.30;99.90
8633;DHT22;4354;49.832;10.746;2024-03-06T13:09:44;18.70;99.90
8633;DHT22;4354;49.832;10.746;2024-03-06T13:12:14;18.30;99.90
8633;DHT22;4354;49.832;10.746;2024-03-06T13:14:42;18.00;99.90
8633;DHT22;4354;49.832;10.746;2024-03-06T13:17:10;17.30;99.90
8633;DHT22;4354;49.832;10.746;2024-03-06T13:19:37;18.30;99.90
8633;DHT22;4354;49.832;10.746;2024-03-06T13:22:03;17.60;99.90
8633;DHT22;4354;49.832;10.746;2024-03-06T13:24:34;17.50;99.90
8633;DHT22;4354;49.832;10.746;2024-03-06T13:27:05;17.20;99.90
8633;DHT22;4354;49.832;10.746;2024-03-06T13:29:32;16.80;99.90
8633;DHT22;4354;49.832;10.746;2024-03-06T13:31:59;16.70;99.90
8633;DHT22;4354;49.832;10.746;2024-03-06T13:34:26;16.50;99.90
8633;DHT22;4354;49.832;10.746;2024-03-06T13:36:55;16.90;99.90
8633;DHT22;4354;49.832;10.746;2024-03-06T13:39:28;16.50;99.90
8633;DHT22;4354;49.832;10.746;2024-03-06T13:41:57;15.60;99.90
8633;DHT22;4354;49.832;10.746;2024-03-06T13:44:24;16.30;99.90
8633;DHT22;4354;49.832;10.746;2024-03-06T13:46:51;16.10;99.90
8633;DHT22;4354;49.832;10.746;2024-03-06T13:49:36;14.90;99.90
8633;DHT22;4354;49.832;10.746;2024-03-06T13:52:04;14.60;99.90
8633;DHT22;4354;49.832;10.746;2024-03-06T13:54:31;14.30;99.90
8633;DHT22;4354;49.832;10.746;2024-03-06T13:56:58;14.20;99.90
8633;DHT22;4354;49.832;10.746;2024-03-06T13:59:30;14.60;99.90
8633;DHT22;4354;49.832;10.746;2024-03-06T14:01:58;14.00;99.90
8633;DHT22;4354;49.832;10.746;2024-03-06T14:04:26;14.30;99.90
8633;DHT22;4354;49.832;10.746;2024-03-06T14:06:53;14.00;99.90
8633;DHT22;4354;49.832;10.746;2024-03-06T14:09:20;14.10;99.90
8633;DHT22;4354;49.832;10.746;2024-03-06T14:11:46;14.10;99.90
8633;DHT22;4354;49.832;10.746;2024-03-06T14:14:14;14.30;99.90
8633;DHT22;4354;49.832;10.746;2024-03-06T14:16:40;14.30;99.90
8633;DHT22;4354;49.832;10.746;2024-03-06T14:19:07;14.50;99.90
8633;DHT22;4354;49.832;10.746;2024-03-06T14:21:34;14.60;99.90
8633;DHT22;4354;49.832;10.746;2024-03-06T14:24:01;14.20;99.90
8633;DHT22;4354;49.832;10.746;2024-03-06T14:26:35;14.20;99.90
8633;DHT22;4354;49.832;10.746;2024-03-06T14:29:02;14.20;99.90
8633;DHT22;4354;49.832;10.746;2024-03-06T14:31:32;14.10;99.90
8633;DHT22;4354;49.832;10.746;2024-03-06T14:34:01;14.20;99.90
8633;DHT22;4354;49.832;10.746;2024-03-06T14:36:42;15.60;99.90
8633;DHT22;4354;49.832;10.746;2024-03-06T14:39:09;14.10;99.90
8633;DHT22;4354;49.832;10.746;2024-03-06T14:41:37;13.70;99.90
8633;DHT22;4354;49.832;10.746;2024-03-06T14:44:04;14.40;99.90
8633;DHT22;4354;49.832;10.746;2024-03-06T14:46:31;14.10;99.90
8633;DHT22;4354;49.832;10.746;2024-03-06T14:48:58;13.60;99.90
8633;DHT22;4354;49.832;10.746;2024-03-06T14:51:26;13.70;99.90
8633;DHT22;4354;49.832;10.746;2024-03-06T14:53:53;12.00;99.90
8633;DHT22;4354;49.832;10.746;2024-03-06T14:56:22;13.40;99.90
8633;DHT22;4354;49.832;10.746;2024-03-06T14:58:53;13.00;99.90
8633;DHT22;4354;49.832;10.746;2024-03-06T15:01:20;13.10;99.90
8633;DHT22;4354;49.832;10.746;2024-03-06T15:03:47;14.70;99.90
8633;DHT22;4354;49.832;10.746;2024-03-06T15:06:18;13.20;99.90
8633;DHT22;4354;49.832;10.746;2024-03-06T15:08:49;13.20;99.90
8633;DHT22;4354;49.832;10.746;2024-03-06T15:11:17;13.30;99.90
8633;DHT22;4354;49.832;10.746;2024-03-06T15:13:47;12.60;99.90
8633;DHT22;4354;49.832;10.746;2024-03-06T15:16:14;12.60;99.90
8633;DHT22;4354;49.832;10.746;2024-03-06T15:18:43;13.60;99.90
8633;DHT22;4354;49.832;10.746;2024-03-06T15:21:10;13.40;99.90
8633;DHT22;4354;49.832;10.746;2024-03-06T15:23:38;12.10;99.90
8633;DHT22;4354;49.832;10.746;2024-03-06T15:26:05;11.60;99.90
8633;DHT22;4354;49.832;10.746;2024-03-06T15:28:32;11.80;99.90
8633;DHT22;4354;49.832;10.746;2024-03-06T15:30:59;11.60;99.90
8633;DHT22;4354;49.832;10.746;2024-03-06T15:33:26;11.50;99.90
8633;DHT22;4354;49.832;10.746;2024-03-06T15:35:53;11.30;99.90
8633;DHT22;4354;49.832;10.746;2024-03-06T15:38:19;11.00;99.90
8633;DHT22;4354;49.832;10.746;2024-03-06T15:40:47;10.90;99.90
8633;DHT22;4354;49.832;10.746;2024-03-06T15:43:17;10.80;99.90
8633;DHT22;4354;49.832;10.746;2024-03-06T15:45:44;10.70;99.90
8633;DHT22;4354;49.832;10.746;2024-03-06T15:48:11;10.60;99.90
8633;DHT22;4354;49.832;10.746;2024-03-06T15:50:42;10.50;99.90
8633;DHT22;4354;49.832;10.746;2024-03-06T15:53:10;10.40;99.90
8633;DHT22;4354;49.832;10.746;2024-03-06T15:55:37;10.40;99.90
8633;DHT22;4354;49.832;10.746;2024-03-06T15:58:04;10.40;99.90
8633;DHT22;4354;49.832;10.746;2024-03-06T16:00:31;10.40;99.90
8633;DHT22;4354;49.832;10.746;2024-03-06T16:02:58;10.50;99.90
8633;DHT22;4354;49.832;10.746;2024-03-06T16:05:25;10.50;99.90
8633;DHT22;4354;49.832;10.746;2024-03-06T16:07:58;9.90;99.90
8633;DHT22;4354;49.832;10.746;2024-03-06T16:10:31;11.20;99.90
8633;DHT22;4354;49.832;10.746;2024-03-06T16:12:58;10.40;99.90
8633;DHT22;4354;49.832;10.746;2024-03-06T16:15:25;10.30;99.90
8633;DHT22;4354;49.832;10.746;2024-03-06T16:17:52;10.20;99.90
8633;DHT22;4354;49.832;10.746;2024-03-06T16:20:19;10.10;99.90
8633;DHT22;4354;49.832;10.746;2024-03-06T16:22:47;10.10;99.90
8633;DHT22;4354;49.832;10.746;2024-03-06T16:25:13;10.00;99.90
8633;DHT22;4354;49.832;10.746;2024-03-06T16:27:40;9.90;99.90
8633;DHT22;4354;49.832;10.746;2024-03-06T16:30:07;9.80;99.90
8633;DHT22;4354;49.832;10.746;2024-03-06T16:32:35;9.80;99.90
8633;DHT22;4354;49.832;10.746;2024-03-06T16:35:02;9.70;99.90
8633;DHT22;4354;49.832;10.746;2024-03-06T16:37:30;9.60;99.90
8633;DHT22;4354;49.832;10.746;2024-03-06T16:39:57;9.50;99.90
8633;DHT22;4354;49.832;10.746;2024-03-06T16:42:24;9.40;99.90
8633;DHT22;4354;49.832;10.746;2024-03-06T16:44:51;9.30;99.90
8633;DHT22;4354;49.832;10.746;2024-03-06T16:47:18;9.40;99.90
8633;DHT22;4354;49.832;10.746;2024-03-06T16:49:45;9.10;99.90
8633;DHT22;4354;49.832;10.746;2024-03-06T16:52:11;9.00;99.90
8633;DHT22;4354;49.832;10.746;2024-03-06T16:54:40;8.90;99.90
8633;DHT22;4354;49.832;10.746;2024-03-06T16:57:07;8.80;99.90
8633;DHT22;4354;49.832;10.746;2024-03-06T16:59:37;8.70;99.90
8633;DHT22;4354;49.832;10.746;2024-03-06T17:02:05;8.60;99.90
8633;DHT22;4354;49.832;10.746;2024-03-06T17:04:32;8.50;99.90
8633;DHT22;4354;49.832;10.746;2024-03-06T17:06:59;8.30;99.90
8633;DHT22;4354;49.832;10.746;2024-03-06T17:09:28;8.20;1.00
8633;DHT22;4354;49.832;10.746;2024-03-06T17:11:54;8.10;1.00
8633;DHT22;4354;49.832;10.746;2024-03-06T17:14:21;8.00;1.00
8633;DHT22;4354;49.832;10.746;2024-03-06T17:16:48;7.90;1.00
8633;DHT22;4354;49.832;10.746;2024-03-06T17:19:15;7.80;1.00
8633;DHT22;4354;49.832;10.746;2024-03-06T17:21:42;7.60;1.00
8633;DHT22;4354;49.832;10.746;2024-03-06T17:24:09;7.50;1.00
8633;DHT22;4354;49.832;10.746;2024-03-06T17:26:36;7.40;99.90
8633;DHT22;4354;49.832;10.746;2024-03-06T17:29:05;7.30;99.90
8633;DHT22;4354;49.832;10.746;2024-03-06T17:31:34;7.50;1.00
8633;DHT22;4354;49.832;10.746;2024-03-06T17:34:04;7.20;84.00
8633;DHT22;4354;49.832;10.746;2024-03-06T17:36:33;7.10;1.00
8633;DHT22;4354;49.832;10.746;2024-03-06T17:39:04;7.10;1.00
8633;DHT22;4354;49.832;10.746;2024-03-06T17:41:32;7.10;99.90
8633;DHT22;4354;49.832;10.746;2024-03-06T17:44:02;7.00;99.90
8633;DHT22;4354;49.832;10.746;2024-03-06T17:46:31;6.90;1.00
8633;DHT22;4354;49.832;10.746;2024-03-06T17:48:58;6.80;1.00
8633;DHT22;4354;49.832;10.746;2024-03-06T17:51:32;6.70;99.90
8633;DHT22;4354;49.832;10.746;2024-03-06T17:53:59;6.60;1.00
8633;DHT22;4354;49.832;10.746;2024-03-06T17:56:26;6.50;1.00
8633;DHT22;4354;49.832;10.746;2024-03-06T17:58:53;6.50;1.00
8633;DHT22;4354;49.832;10.746;2024-03-06T18:01:20;6.00;99.90
8633;DHT22;4354;49.832;10.746;2024-03-06T18:03:50;6.40;1.00
8633;DHT22;4354;49.832;10.746;2024-03-06T18:06:17;6.20;1.00
8633;DHT22;4354;49.832;10.746;2024-03-06T18:08:44;6.20;99.90
8633;DHT22;4354;49.832;10.746;2024-03-06T18:11:12;6.20;1.00
8633;DHT22;4354;49.832;10.746;2024-03-06T18:13:39;6.20;1.00
8633;DHT22;4354;49.832;10.746;2024-03-06T18:16:09;6.10;1.00
8633;DHT22;4354;49.832;10.746;2024-03-06T18:18:36;6.10;99.90
8633;DHT22;4354;49.832;10.746;2024-03-06T18:21:04;6.00;97.00